Time;durP1;ratioP1;P1;durP2;ratioP2;P2;SDS_P1;SDS_P2;PMS_P1;PMS_P2;Temp;Humidity;BMP_temperature;BMP_pressure;BME280_temperature;BME280_humidity;BME280_pressure;Samples;Min_cycle;Max_cycle;Signal;HPM_P1;HPM_P2
2022/09/08 00:01:08;;;;;;;54.40;48.95;;;16.10;99.90;;;;;;5088021;27;20479;-57
2022/09/08 00:03:36;;;;;;;54.13;48.97;;;16.00;99.90;;;;;;5069880;28;20046;-53
2022/09/08 00:06:08;;;;;;;50.00;45.40;;;16.00;99.90;;;;;;5090838;28;20044;-51
2022/09/08 00:08:34;;;;;;;55.22;49.83;;;16.10;99.90;;;;;;5073304;28;20538;-49
2022/09/08 00:11:03;;;;;;;56.97;51.47;;;16.10;99.90;;;;;;5094567;28;20043;-53
2022/09/08 00:13:32;;;;;;;57.15;51.45;;;16.10;99.90;;;;;;5096924;28;20039;-51
2022/09/08 00:16:02;;;;;;;59.90;53.72;;;16.10;99.90;;;;;;5090426;28;20402;-51
2022/09/08 00:18:29;;;;;;;56.90;51.13;;;16.10;99.90;;;;;;5073055;28;20591;-51
2022/09/08 00:20:55;;;;;;;56.15;50.72;;;16.00;99.90;;;;;;5089927;28;20047;-53
2022/09/08 00:23:21;;;;;;;59.80;54.17;;;16.00;99.90;;;;;;5096495;27;20506;-54
2022/09/08 00:25:47;;;;;;;61.03;55.30;;;16.00;99.90;;;;;;5092074;28;20108;-52
2022/09/08 00:28:13;;;;;;;62.88;56.85;;;16.10;99.90;;;;;;5089507;28;20148;-51
2022/09/08 00:30:40;;;;;;;65.82;59.35;;;16.10;99.90;;;;;;5056138;28;20494;-52
2022/09/08 00:33:06;;;;;;;65.72;59.30;;;16.10;99.90;;;;;;5094934;27;20460;-53
2022/09/08 00:35:32;;;;;;;63.92;57.83;;;16.10;99.90;;;;;;5097472;27;20410;-50
2022/09/08 00:37:58;;;;;;;67.10;60.55;;;16.00;99.90;;;;;;5091240;28;20402;-54
2022/09/08 00:40:26;;;;;;;67.43;60.45;;;16.10;99.90;;;;;;5094058;28;20044;-55
2022/09/08 00:43:01;;;;;;;66.88;59.83;;;16.10;99.90;;;;;;5094386;28;20051;-52
2022/09/08 00:45:36;;;;;;;62.22;56.33;;;16.10;99.90;;;;;;5109961;27;20082;-42
2022/09/08 00:48:15;;;;;;;68.63;61.72;;;16.10;99.90;;;;;;5097900;28;20055;-43
2022/09/08 00:50:41;;;;;;;67.30;60.22;;;16.10;99.90;;;;;;5088459;28;20837;-42
2022/09/08 00:53:11;;;;;;;66.88;60.30;;;16.10;99.90;;;;;;5090641;28;20130;-44
2022/09/08 00:55:39;;;;;;;69.35;62.65;;;16.20;99.90;;;;;;5092613;28;20044;-41
2022/09/08 00:58:07;;;;;;;66.22;59.97;;;16.20;99.90;;;;;;5087598;28;20379;-42
2022/09/08 01:00:36;;;;;;;65.70;59.65;;;16.30;99.90;;;;;;5093986;28;20054;-43
2022/09/08 01:03:05;;;;;;;64.82;58.95;;;16.30;99.90;;;;;;5087089;28;20525;-42
2022/09/08 01:05:40;;;;;;;68.13;61.65;;;16.40;99.90;;;;;;5108078;27;20082;-42
2022/09/08 01:14:55;;;;;;;64.68;58.75;;;16.50;99.90;;;;;;5089118;28;20040;-44
2022/09/08 01:17:25;;;;;;;65.13;58.78;;;16.60;99.90;;;;;;5071775;28;20453;-41
2022/09/08 01:19:52;;;;;;;65.55;59.65;;;16.60;99.90;;;;;;5071609;28;20278;-42
2022/09/08 01:22:24;;;;;;;64.82;58.83;;;16.60;99.90;;;;;;5091466;28;20420;-46
2022/09/08 01:25:06;;;;;;;64.80;58.78;;;16.70;99.90;;;;;;5111992;27;20452;-42
2022/09/08 01:27:35;;;;;;;64.45;58.42;;;16.70;99.90;;;;;;5093234;28;20093;-43
2022/09/08 01:30:06;;;;;;;65.07;58.95;;;16.70;99.90;;;;;;5073979;28;20482;-43
2022/09/08 01:32:37;;;;;;;64.25;58.20;;;16.80;99.90;;;;;;5095108;28;20457;-42
2022/09/08 01:35:04;;;;;;;57.90;53.00;;;16.80;99.90;;;;;;5072037;28;20050;-42
2022/09/08 01:37:30;;;;;;;59.30;53.90;;;16.80;99.90;;;;;;5091654;28;20062;-44
2022/09/08 01:39:57;;;;;;;61.58;55.85;;;16.80;99.90;;;;;;5087451;28;20050;-45
2022/09/08 01:42:24;;;;;;;60.08;54.58;;;16.80;99.90;;;;;;5089722;28;20435;-55
2022/09/08 01:44:50;;;;;;;60.33;54.78;;;16.80;99.90;;;;;;5050799;28;20055;-50
2022/09/08 01:47:16;;;;;;;59.55;54.05;;;16.80;99.90;;;;;;5095227;28;20054;-51
2022/09/08 01:49:42;;;;;;;60.00;54.53;;;16.90;99.90;;;;;;5091064;28;20043;-54
2022/09/08 01:52:09;;;;;;;60.70;55.28;;;16.90;99.90;;;;;;5090490;28;21377;-54
2022/09/08 01:54:35;;;;;;;56.67;51.78;;;16.90;99.90;;;;;;5071415;28;20043;-51
2022/09/08 01:57:01;;;;;;;58.95;53.67;;;16.90;99.90;;;;;;5072547;27;20402;-54
2022/09/08 01:59:28;;;;;;;58.78;53.55;;;16.90;99.90;;;;;;5095462;27;20669;-52
2022/09/08 02:01:54;;;;;;;58.78;53.38;;;16.90;99.90;;;;;;5054545;28;20294;-51
2022/09/08 02:04:20;;;;;;;59.08;53.97;;;16.90;99.90;;;;;;5086228;28;20036;-50
2022/09/08 02:06:46;;;;;;;59.95;54.55;;;17.00;99.90;;;;;;5072014;28;20047;-44
2022/09/08 02:09:13;;;;;;;57.72;52.55;;;17.00;99.90;;;;;;5071040;28;20573;-43
2022/09/08 02:11:39;;;;;;;58.80;53.33;;;17.00;99.90;;;;;;5060327;28;20040;-43
2022/09/08 02:14:05;;;;;;;61.28;55.67;;;17.00;99.90;;;;;;5089573;28;20047;-54
2022/09/08 02:16:32;;;;;;;64.05;57.53;;;17.00;99.90;;;;;;5088093;28;20043;-42
2022/09/08 02:18:58;;;;;;;61.58;55.75;;;17.00;99.90;;;;;;5091544;28;20053;-51
2022/09/08 02:21:24;;;;;;;61.05;55.15;;;17.00;99.90;;;;;;5071979;28;20134;-42
2022/09/08 02:23:52;;;;;;;59.72;54.22;;;17.00;99.90;;;;;;5089728;28;20058;-52
2022/09/08 02:26:24;;;;;;;62.70;57.15;;;16.90;99.90;;;;;;5094191;28;20051;-53
2022/09/08 02:28:52;;;;;;;;;;;16.90;99.90;;;;;;5095264;27;20090;-43
2022/09/08 02:31:18;;;;;;;60.15;54.75;;;16.90;99.90;;;;;;5089180;28;19920;-52
2022/09/08 02:33:45;;;;;;;60.28;54.67;;;16.90;99.90;;;;;;5097470;28;20469;-53
2022/09/08 02:36:11;;;;;;;59.30;53.97;;;16.90;99.90;;;;;;5095792;28;20571;-57
2022/09/08 02:38:37;;;;;;;59.53;54.15;;;16.90;99.90;;;;;;5090082;27;20526;-41
2022/09/08 02:41:06;;;;;;;61.05;55.25;;;16.90;99.90;;;;;;5092223;27;20844;-52
2022/09/08 02:43:33;;;;;;;63.00;57.50;;;16.90;99.90;;;;;;5090489;28;20050;-53
2022/09/08 02:46:07;;;;;;;62.78;56.97;;;16.90;99.90;;;;;;5092963;28;20058;-51
2022/09/08 02:48:34;;;;;;;64.20;58.08;;;16.90;99.90;;;;;;5094148;28;20050;-53
2022/09/08 02:51:03;;;;;;;63.05;57.55;;;16.90;99.90;;;;;;5095328;27;20051;-51
2022/09/08 02:53:30;;;;;;;61.80;56.30;;;16.90;99.90;;;;;;5074051;28;20129;-53
2022/09/08 02:55:58;;;;;;;60.97;55.63;;;16.90;99.90;;;;;;5090881;28;20043;-53
2022/09/08 02:58:25;;;;;;;65.10;59.13;;;16.90;99.90;;;;;;5095232;28;20047;-45
2022/09/08 03:00:52;;;;;;;61.00;55.70;;;16.90;99.90;;;;;;5094486;27;20050;-53
2022/09/08 03:03:18;;;;;;;62.65;57.00;;;16.90;99.90;;;;;;5094486;28;20105;-45
2022/09/08 03:05:45;;;;;;;61.75;56.08;;;16.90;99.90;;;;;;5086144;28;20129;-53
2022/09/08 03:08:12;;;;;;;62.85;57.05;;;16.90;99.90;;;;;;5091873;28;20048;-50
2022/09/08 03:10:38;;;;;;;63.80;57.85;;;16.90;99.90;;;;;;5077047;28;20073;-49
2022/09/08 03:13:04;;;;;;;64.75;58.67;;;16.90;99.90;;;;;;5088175;27;20431;-49
2022/09/08 03:15:31;;;;;;;65.32;59.35;;;16.90;99.90;;;;;;5073974;28;20051;-50
2022/09/08 03:17:58;;;;;;;62.80;57.25;;;16.90;99.90;;;;;;5094877;28;20043;-51
2022/09/08 03:20:25;;;;;;;63.10;57.38;;;16.90;99.90;;;;;;5091641;27;20502;-52
2022/09/08 03:22:51;;;;;;;63.92;58.22;;;16.90;99.90;;;;;;5076516;28;20043;-52
2022/09/08 03:25:18;;;;;;;65.10;59.08;;;16.90;99.90;;;;;;5070480;28;20044;-50
2022/09/08 03:27:45;;;;;;;64.38;58.55;;;16.90;99.90;;;;;;5076109;28;20870;-50
2022/09/08 03:30:17;;;;;;;63.97;57.92;;;17.00;99.90;;;;;;5095376;28;20039;-43
2022/09/08 03:32:45;;;;;;;64.85;58.65;;;16.90;99.90;;;;;;5074264;28;20084;-41
2022/09/08 03:35:14;;;;;;;64.57;58.65;;;16.90;99.90;;;;;;5073122;28;20090;-43
2022/09/08 03:37:41;;;;;;;66.38;60.03;;;16.90;99.90;;;;;;5073736;28;20070;-52
2022/09/08 03:40:11;;;;;;;69.78;62.95;;;16.90;99.90;;;;;;5101063;27;20055;-51
2022/09/08 03:42:39;;;;;;;69.03;62.15;;;16.90;99.90;;;;;;5091167;28;20118;-43
2022/09/08 03:45:09;;;;;;;70.72;63.75;;;16.80;99.90;;;;;;5091528;28;20051;-42
2022/09/08 03:47:35;;;;;;;67.18;61.00;;;16.80;99.90;;;;;;5091725;28;20039;-43
2022/09/08 03:50:02;;;;;;;67.90;61.28;;;16.70;99.90;;;;;;5092421;28;20528;-43
2022/09/08 03:52:28;;;;;;;72.05;64.78;;;16.70;99.90;;;;;;5093123;28;20502;-42
2022/09/08 03:54:54;;;;;;;67.78;61.35;;;16.70;99.90;;;;;;5094295;28;20051;-45
2022/09/08 03:57:24;;;;;;;72.35;65.43;;;16.70;99.90;;;;;;5077821;28;20770;-43
2022/09/08 03:59:53;;;;;;;69.00;62.33;;;16.60;99.90;;;;;;5078850;28;20055;-43
2022/09/08 04:02:21;;;;;;;70.03;62.78;;;16.60;99.90;;;;;;5090125;28;20059;-43
2022/09/08 04:04:48;;;;;;;68.55;62.08;;;16.60;99.90;;;;;;5089364;28;20080;-43
2022/09/08 04:07:16;;;;;;;69.28;62.72;;;16.60;99.90;;;;;;5092949;28;20127;-51
2022/09/08 04:09:42;;;;;;;68.72;61.95;;;16.60;99.90;;;;;;5092210;27;20459;-53
2022/09/08 04:12:09;;;;;;;65.50;59.45;;;16.60;99.90;;;;;;5058980;28;20052;-54
2022/09/08 04:14:35;;;;;;;68.63;61.85;;;16.50;99.90;;;;;;5053828;28;20048;-53
2022/09/08 04:17:01;;;;;;;71.82;64.28;;;16.60;99.90;;;;;;5093198;28;20509;-51
2022/09/08 04:19:28;;;;;;;66.50;60.30;;;16.60;99.90;;;;;;5089556;27;20051;-50
2022/09/08 04:21:54;;;;;;;73.88;66.28;;;16.50;99.90;;;;;;5092497;28;20438;-52
2022/09/08 04:24:20;;;;;;;67.75;61.15;;;16.50;99.90;;;;;;5090201;28;20466;-52
2022/09/08 04:26:46;;;;;;;72.13;64.97;;;16.50;99.90;;;;;;5095012;28;20051;-50
2022/09/08 04:29:13;;;;;;;69.93;63.15;;;16.50;99.90;;;;;;5092057;28;20050;-53
2022/09/08 04:31:40;;;;;;;67.82;61.22;;;16.50;99.90;;;;;;5096012;27;20102;-54
2022/09/08 04:34:06;;;;;;;71.05;64.20;;;16.50;99.90;;;;;;5077763;28;20044;-54
2022/09/08 04:36:32;;;;;;;69.40;62.45;;;16.50;99.90;;;;;;5091771;28;20366;-52
2022/09/08 04:38:59;;;;;;;69.63;62.72;;;16.50;99.90;;;;;;5088073;28;20353;-53
2022/09/08 04:41:28;;;;;;;66.15;59.65;;;16.50;99.90;;;;;;5090851;28;20100;-51
2022/09/08 04:43:56;;;;;;;71.70;64.50;;;16.40;99.90;;;;;;5076800;28;21238;-53
2022/09/08 04:46:22;;;;;;;72.13;64.80;;;16.40;99.90;;;;;;5092124;28;20494;-54
2022/09/08 04:48:48;;;;;;;69.82;63.05;;;16.40;99.90;;;;;;5087413;28;20040;-50
2022/09/08 04:51:18;;;;;;;78.43;70.43;;;16.40;99.90;;;;;;5090990;27;20079;-50
2022/09/08 04:53:44;;;;;;;78.97;70.95;;;16.30;99.90;;;;;;5092670;28;20042;-41
2022/09/08 04:56:11;;;;;;;78.88;70.70;;;16.30;99.90;;;;;;5074081;28;20130;-43
2022/09/08 04:58:40;;;;;;;77.82;70.03;;;16.30;99.90;;;;;;5076291;28;20051;-43
2022/09/08 05:01:10;;;;;;;75.28;67.68;;;16.30;99.90;;;;;;5089917;28;20134;-42
2022/09/08 05:03:36;;;;;;;81.63;72.97;;;16.40;99.90;;;;;;5094515;28;20079;-41
2022/09/08 05:06:15;;;;;;;79.88;71.15;;;16.30;99.90;;;;;;5089160;28;20290;-46
2022/09/08 05:08:46;;;;;;;76.90;68.90;;;16.40;99.90;;;;;;5086441;28;20226;-41
2022/09/08 05:11:13;;;;;;;76.47;68.25;;;16.40;99.90;;;;;;5092985;28;20062;-42
2022/09/08 05:13:40;;;;;;;77.78;69.53;;;16.40;99.90;;;;;;5090858;28;20043;-43
2022/09/08 05:16:09;;;;;;;75.00;67.40;;;16.40;99.90;;;;;;5092553;27;20048;-42
2022/09/08 05:18:35;;;;;;;78.25;69.95;;;16.40;99.90;;;;;;5089631;27;20126;-41
2022/09/08 05:21:03;;;;;;;77.32;69.32;;;16.40;99.90;;;;;;5093493;28;20357;-40
2022/09/08 05:23:29;;;;;;;79.45;70.78;;;16.40;99.90;;;;;;5093293;28;20075;-41
2022/09/08 05:25:56;;;;;;;79.18;70.55;;;16.40;99.90;;;;;;5076502;28;20035;-42
2022/09/08 05:28:28;;;;;;;78.60;70.38;;;16.40;99.90;;;;;;5077862;28;20473;-53
2022/09/08 05:30:54;;;;;;;83.78;74.82;;;16.40;99.90;;;;;;5088696;28;20046;-49
2022/09/08 05:33:22;;;;;;;77.50;69.40;;;16.40;99.90;;;;;;5074142;28;20040;-52
2022/09/08 05:35:48;;;;;;;78.28;70.20;;;16.50;99.90;;;;;;5094210;28;20267;-42
2022/09/08 05:38:14;;;;;;;83.05;73.60;;;16.50;99.90;;;;;;5075242;28;20085;-43
2022/09/08 05:40:41;;;;;;;80.53;72.03;;;16.50;99.90;;;;;;5095449;27;20161;-52
2022/09/08 05:43:07;;;;;;;78.03;69.47;;;16.60;99.90;;;;;;5060542;28;20695;-42
2022/09/08 05:45:33;;;;;;;78.65;70.13;;;16.60;99.90;;;;;;5090179;28;20055;-44
2022/09/08 05:48:00;;;;;;;82.95;70.60;;;16.60;99.90;;;;;;5093290;28;20447;-41
2022/09/08 05:50:26;;;;;;;88.22;72.78;;;16.60;99.90;;;;;;5041489;28;20043;-42
2022/09/08 05:52:52;;;;;;;72.82;65.38;;;16.50;99.90;;;;;;5093294;27;20048;-44
2022/09/08 05:55:18;;;;;;;77.38;69.28;;;16.50;99.90;;;;;;5076253;28;20043;-41
2022/09/08 05:57:47;;;;;;;71.75;64.15;;;16.50;99.90;;;;;;5097265;28;20058;-42
2022/09/08 06:00:13;;;;;;;145.25;85.75;;;16.50;99.90;;;;;;5076390;28;20078;-39
2022/09/08 06:02:39;;;;;;;163.73;93.10;;;16.50;99.90;;;;;;5095000;28;20089;-39
2022/09/08 06:05:06;;;;;;;146.25;91.35;;;16.50;99.90;;;;;;5055524;28;20137;-40
2022/09/08 06:07:32;;;;;;;129.20;88.03;;;16.40;99.90;;;;;;5089512;28;20047;-39
2022/09/08 06:09:59;;;;;;;133.35;90.55;;;16.40;99.90;;;;;;5092174;28;20085;-40
2022/09/08 06:12:25;;;;;;;93.03;79.00;;;16.40;99.90;;;;;;5091290;28;20036;-39
2022/09/08 06:14:51;;;;;;;104.80;80.28;;;16.40;99.90;;;;;;5070893;28;20067;-38
2022/09/08 06:17:17;;;;;;;117.78;82.75;;;16.40;99.90;;;;;;5058949;28;20062;-39
2022/09/08 06:19:43;;;;;;;134.05;89.38;;;16.40;99.90;;;;;;5096730;28;20165;-50
2022/09/08 06:22:10;;;;;;;114.05;86.53;;;16.50;99.90;;;;;;5112943;27;20043;-52
2022/09/08 06:24:36;;;;;;;121.45;85.57;;;16.50;99.90;;;;;;5095047;28;20078;-39
2022/09/08 06:27:02;;;;;;;130.23;88.55;;;16.50;99.90;;;;;;5094488;28;20048;-42
2022/09/08 06:29:54;;;;;;;124.57;87.65;;;16.50;99.90;;;;;;5058965;28;20055;-39
2022/09/08 06:32:43;;;;;;;123.68;85.05;;;16.50;99.90;;;;;;5090027;28;20557;-40
2022/09/08 06:35:13;;;;;;;104.18;76.30;;;16.50;99.90;;;;;;5095319;28;20097;-54
2022/09/08 06:37:48;;;;;;;103.32;74.38;;;16.50;99.90;;;;;;5076785;28;20042;-52
2022/09/08 06:40:25;;;;;;;90.00;71.50;;;16.50;99.90;;;;;;5086169;28;20052;-53
2022/09/08 06:43:26;;;;;;;92.20;67.13;;;16.50;99.90;;;;;;5082727;28;20035;-51
2022/09/08 06:45:56;;;;;;;102.95;69.10;;;16.50;99.90;;;;;;5088498;28;20902;-50
2022/09/08 06:48:32;;;;;;;92.03;68.00;;;16.50;99.90;;;;;;5102205;27;20043;-53
2022/09/08 06:51:32;;;;;;;86.10;66.80;;;16.50;99.90;;;;;;5092619;28;20044;-52
2022/09/08 06:54:20;;;;;;;109.40;72.07;;;16.50;99.90;;;;;;5094525;28;20228;-53
2022/09/08 06:56:51;;;;;;;108.28;75.18;;;16.60;99.90;;;;;;5092080;28;20075;-55
2022/09/08 06:59:24;;;;;;;;;;;16.60;99.90;;;;;;5087474;28;20562;-53
2022/09/08 07:02:08;;;;;;;;;;;16.60;99.90;;;;;;5075602;28;20338;-52
2022/09/08 07:04:58;;;;;;;120.82;78.35;;;16.70;99.90;;;;;;5107417;27;19926;-54
2022/09/08 07:07:33;;;;;;;108.47;76.47;;;16.60;99.90;;;;;;5108970;27;20074;-54
2022/09/08 07:10:24;;;;;;;107.15;79.57;;;16.60;99.90;;;;;;5096242;28;20144;-53
2022/09/08 07:13:07;;;;;;;115.03;79.43;;;16.70;99.90;;;;;;5095942;28;20085;-54
2022/09/08 07:15:45;;;;;;;127.75;83.10;;;16.70;99.90;;;;;;5096913;28;20062;-51
2022/09/08 07:18:23;;;;;;;117.82;75.95;;;16.60;99.90;;;;;;5098230;27;20047;-51
2022/09/08 07:20:53;;;;;;;124.80;83.13;;;16.60;99.90;;;;;;5093985;28;20062;-54
2022/09/08 07:23:27;;;;;;;150.27;88.38;;;16.60;99.90;;;;;;5097843;28;20046;-53
2022/09/08 07:26:06;;;;;;;126.65;84.28;;;16.50;99.90;;;;;;5098807;28;20039;-53
2022/09/08 07:28:40;;;;;;;112.53;78.30;;;16.60;99.90;;;;;;5098185;27;20056;-52
2022/09/08 07:31:20;;;;;;;111.78;79.03;;;16.60;99.90;;;;;;5094785;28;20132;-54
2022/09/08 07:33:51;;;;;;;127.82;82.97;;;16.60;99.90;;;;;;5095891;28;20078;-42
2022/09/08 07:36:33;;;;;;;142.40;85.30;;;16.60;99.90;;;;;;5099785;28;20053;-49
2022/09/08 07:39:11;;;;;;;99.45;75.20;;;16.60;99.90;;;;;;5098254;27;20051;-41
2022/09/08 07:41:51;;;;;;;119.28;80.00;;;16.70;99.90;;;;;;5100442;28;20082;-43
2022/09/08 07:44:18;;;;;;;96.63;71.88;;;16.70;99.90;;;;;;5089981;28;20138;-52
2022/09/08 07:46:52;;;;;;;107.05;75.22;;;16.70;99.90;;;;;;5096493;27;20118;-53
2022/09/08 07:49:42;;;;;;;98.63;75.40;;;16.70;99.90;;;;;;5093825;27;20048;-50
2022/09/08 07:52:26;;;;;;;106.55;73.97;;;16.70;99.90;;;;;;5069572;28;20039;-50
2022/09/08 07:55:10;;;;;;;88.65;68.03;;;16.70;99.90;;;;;;5096487;28;20085;-50
2022/09/08 07:58:11;;;;;;;102.90;72.50;;;16.70;99.90;;;;;;5090208;28;20039;-50
2022/09/08 08:00:46;;;;;;;120.82;77.65;;;16.70;99.90;;;;;;5096661;27;20051;-53
2022/09/08 08:03:56;;;;;;;97.03;73.10;;;16.70;99.90;;;;;;5089133;28;20070;-52
2022/09/08 08:06:34;;;;;;;133.68;78.95;;;16.70;99.90;;;;;;5002479;28;21100;-40
2022/09/08 08:09:14;;;;;;;142.57;84.75;;;16.70;99.90;;;;;;5091077;28;20086;-40
2022/09/08 08:11:44;;;;;;;133.48;83.38;;;16.70;99.90;;;;;;5076665;27;20157;-40
2022/09/08 08:14:16;;;;;;;135.52;85.00;;;16.70;99.90;;;;;;5080775;28;20042;-42
2022/09/08 08:16:48;;;;;;;126.95;81.97;;;16.80;99.90;;;;;;5091123;27;20121;-41
2022/09/08 08:19:23;;;;;;;127.22;82.00;;;16.70;99.90;;;;;;5097050;28;20130;-43
2022/09/08 08:22:05;;;;;;;127.75;82.10;;;16.80;99.90;;;;;;5093333;28;20487;-41
2022/09/08 08:24:31;;;;;;;;;;;16.70;99.90;;;;;;5076415;28;20040;-41
2022/09/08 08:27:15;;;;;;;167.10;89.53;;;16.80;99.90;;;;;;5093504;28;19963;-43
2022/09/08 08:30:15;;;;;;;138.73;86.47;;;16.80;99.90;;;;;;5093690;28;20469;-42
2022/09/08 08:32:46;;;;;;;121.88;79.07;;;16.80;99.90;;;;;;5056598;28;20394;-40
2022/09/08 08:35:19;;;;;;;158.88;90.15;;;16.80;99.90;;;;;;5093363;28;20463;-44
2022/09/08 08:37:49;;;;;;;104.88;72.40;;;16.80;99.90;;;;;;5073250;28;20083;-43
2022/09/08 08:40:45;;;;;;;93.63;65.43;;;16.80;99.90;;;;;;5092738;28;20477;-42
2022/09/08 08:43:35;;;;;;;84.85;59.15;;;16.80;99.90;;;;;;5093212;28;20073;-41
2022/09/08 08:46:32;;;;;;;72.68;54.45;;;16.80;99.90;;;;;;5073353;28;20713;-43
2022/09/08 08:49:19;;;;;;;64.95;49.58;;;16.80;99.90;;;;;;5086483;28;20048;-40
2022/09/08 08:52:36;;;;;;;55.28;44.95;;;16.80;99.90;;;;;;5088462;28;20144;-53
2022/09/08 08:55:08;;;;;;;52.92;40.80;;;16.80;99.90;;;;;;5067875;28;20048;-49
2022/09/08 08:57:39;;;;;;;;;;;16.80;99.90;;;;;;5037231;28;20589;-51
2022/09/08 09:00:15;;;;;;;;;;;16.80;99.90;;;;;;5084454;27;19919;-50
2022/09/08 09:03:01;;;;;;;44.65;35.47;;;16.80;99.90;;;;;;5092555;28;19980;-52
2022/09/08 09:05:45;;;;;;;46.60;36.53;;;16.80;99.90;;;;;;5091831;28;20140;-50
2022/09/08 09:08:39;;;;;;;45.80;36.92;;;16.80;99.90;;;;;;5088465;28;20048;-50
2022/09/08 09:11:24;;;;;;;39.38;33.55;;;16.80;99.90;;;;;;5092882;28;20457;-50
2022/09/08 09:14:05;;;;;;;35.58;31.60;;;16.90;99.90;;;;;;5090590;27;20077;-50
2022/09/08 09:16:31;;;;;;;35.95;31.80;;;16.90;99.90;;;;;;5092014;28;20556;-48
2022/09/08 09:19:05;;;;;;;34.25;30.15;;;17.00;99.90;;;;;;5072383;28;20043;-42
2022/09/08 09:21:52;;;;;;;28.27;25.58;;;17.00;99.90;;;;;;5094184;27;20052;-41
2022/09/08 09:24:39;;;;;;;29.38;26.13;;;17.00;99.90;;;;;;5091276;27;20402;-42
2022/09/08 09:27:15;;;;;;;29.92;26.48;;;17.00;99.90;;;;;;5092373;28;20042;-44
2022/09/08 09:29:42;;;;;;;31.25;27.15;;;17.00;99.90;;;;;;5083415;28;20058;-47
2022/09/08 09:32:30;;;;;;;28.15;25.17;;;17.10;99.90;;;;;;5090564;28;20149;-42
2022/09/08 09:35:21;;;;;;;31.20;27.85;;;17.10;99.90;;;;;;5092019;27;20039;-51
2022/09/08 09:37:56;;;;;;;33.00;29.77;;;17.10;99.90;;;;;;5088856;27;20040;-50
2022/09/08 09:40:40;;;;;;;35.00;31.60;;;17.10;99.90;;;;;;5089336;28;20407;-51
2022/09/08 09:43:19;;;;;;;27.98;25.02;;;17.10;99.90;;;;;;5088262;28;20055;-54
2022/09/08 09:45:58;;;;;;;22.20;20.00;;;17.00;99.90;;;;;;5090822;28;20569;-54
2022/09/08 09:48:51;;;;;;;16.83;15.15;;;17.10;99.90;;;;;;5090687;28;20055;-50
2022/09/08 09:51:23;;;;;;;16.55;13.93;;;17.00;99.90;;;;;;5073767;28;20390;-54
2022/09/08 09:54:21;;;;;;;13.82;12.52;;;16.90;99.90;;;;;;5090160;28;20051;-54
2022/09/08 09:56:52;;;;;;;18.70;16.80;;;16.90;99.90;;;;;;5090098;28;20051;-53
2022/09/08 09:59:36;;;;;;;;;;;16.90;99.90;;;;;;5091433;28;20064;-53
2022/09/08 10:02:27;;;;;;;18.73;16.73;;;16.90;99.90;;;;;;5093201;28;19924;-53
2022/09/08 10:05:29;;;;;;;17.33;15.63;;;17.00;99.90;;;;;;5090669;28;20369;-53
2022/09/08 10:08:36;;;;;;;12.32;10.90;;;17.00;99.90;;;;;;5090529;28;20463;-53
2022/09/08 10:11:33;;;;;;;9.30;6.40;;;16.90;99.90;;;;;;5026919;28;20052;-51
2022/09/08 10:14:32;;;;;;;7.22;4.95;;;16.90;99.90;;;;;;5088766;28;20189;-54
2022/09/08 10:17:16;;;;;;;8.30;6.20;;;16.80;99.90;;;;;;5072284;28;20075;-51
2022/09/08 10:20:06;;;;;;;7.82;6.05;;;16.80;99.90;;;;;;5068635;28;20160;-54
2022/09/08 10:22:54;;;;;;;7.55;5.80;;;16.80;99.90;;;;;;5085303;28;20044;-51
2022/09/08 10:25:50;;;;;;;7.50;5.90;;;16.80;99.90;;;;;;5072493;28;20059;-50
2022/09/08 10:28:38;;;;;;;9.45;5.90;;;16.80;99.90;;;;;;5068070;28;20040;-54
2022/09/08 10:31:23;;;;;;;8.02;5.72;;;16.80;99.90;;;;;;5083886;28;20205;-54
2022/09/08 10:34:14;;;;;;;9.10;7.32;;;16.80;99.90;;;;;;5087806;28;20127;-54
2022/09/08 10:36:58;;;;;;;10.85;8.25;;;16.80;99.90;;;;;;5087539;28;20186;-53
2022/09/08 10:39:27;;;;;;;7.63;6.20;;;16.80;99.90;;;;;;5087199;28;20052;-53
2022/09/08 10:42:15;;;;;;;8.73;5.82;;;16.70;99.90;;;;;;5084236;28;20043;-54
2022/09/08 10:44:48;;;;;;;8.18;5.82;;;16.70;99.90;;;;;;5067606;28;20042;-55
2022/09/08 10:48:02;;;;;;;6.82;5.10;;;16.70;99.90;;;;;;5086388;28;20055;-54
2022/09/08 10:50:32;;;;;;;6.43;4.88;;;16.70;99.90;;;;;;5044115;28;20655;-54
2022/09/08 10:53:17;;;;;;;6.80;5.30;;;16.70;99.90;;;;;;5081633;27;20070;-54
2022/09/08 10:55:55;;;;;;;6.88;5.70;;;16.70;99.90;;;;;;5088427;28;20048;-52
2022/09/08 10:58:53;;;;;;;6.05;5.45;;;16.70;99.90;;;;;;5088313;27;20410;-51
2022/09/08 11:01:47;;;;;;;5.82;4.88;;;16.70;99.90;;;;;;5085682;28;20134;-54
2022/09/08 11:05:06;;;;;;;8.88;5.03;;;16.70;99.90;;;;;;5069590;28;20048;-51
2022/09/08 11:07:51;;;;;;;6.60;5.63;;;16.80;99.90;;;;;;5087535;28;20081;-54
2022/09/08 11:10:35;;;;;;;6.72;5.28;;;16.80;99.90;;;;;;5088104;28;20518;-53
2022/09/08 11:13:40;;;;;;;7.95;4.63;;;16.80;99.90;;;;;;5089456;28;20039;-41
2022/09/08 11:16:08;;;;;;;8.75;5.20;;;16.70;99.90;;;;;;5091460;27;20050;-44
2022/09/08 11:18:40;;;;;;;7.95;6.30;;;16.80;99.90;;;;;;5087194;28;20050;-45
2022/09/08 11:21:29;;;;;;;7.30;6.35;;;16.90;99.90;;;;;;5091194;28;20500;-42
2022/09/08 11:24:22;;;;;;;6.93;6.18;;;17.00;99.90;;;;;;5085429;28;20602;-43
2022/09/08 11:27:12;;;;;;;8.13;6.50;;;17.00;99.90;;;;;;5091027;28;20043;-45
2022/09/08 11:29:39;;;;;;;7.40;6.18;;;17.00;99.90;;;;;;5110796;27;20447;-47
2022/09/08 11:32:26;;;;;;;8.15;6.88;;;17.00;99.90;;;;;;5091892;28;20039;-42
2022/09/08 11:34:55;;;;;;;7.38;5.60;;;17.00;99.90;;;;;;5092662;28;20065;-42
2022/09/08 11:37:40;;;;;;;8.07;5.22;;;17.00;99.90;;;;;;5076810;28;20043;-43
2022/09/08 11:40:34;;;;;;;6.93;5.60;;;17.10;99.90;;;;;;5106687;27;20054;-54
2022/09/08 11:43:34;;;;;;;9.32;6.50;;;17.00;99.90;;;;;;5092877;28;20361;-54
2022/09/08 11:46:06;;;;;;;7.25;6.13;;;17.10;99.90;;;;;;5077224;28;20049;-52
2022/09/08 11:49:11;;;;;;;7.10;5.38;;;17.00;99.90;;;;;;5091259;28;20136;-52
2022/09/08 11:51:46;;;;;;;9.93;7.07;;;17.20;99.90;;;;;;5092891;28;20087;-45
2022/09/08 11:54:37;;;;;;;9.07;6.70;;;17.20;99.90;;;;;;5089258;27;20122;-42
2022/09/08 11:57:30;;;;;;;10.60;6.80;;;17.30;99.90;;;;;;5089392;28;20039;-43
2022/09/08 12:00:19;;;;;;;8.10;7.10;;;17.40;99.90;;;;;;5085797;28;20120;-42
2022/09/08 12:03:00;;;;;;;7.90;5.97;;;17.40;99.90;;;;;;5092176;27;20050;-41
2022/09/08 12:05:45;;;;;;;7.68;6.63;;;17.30;99.90;;;;;;5077123;28;20051;-54
2022/09/08 12:08:26;;;;;;;7.50;6.60;;;17.40;99.90;;;;;;5093963;28;20059;-55
2022/09/08 12:11:20;;;;;;;9.27;7.80;;;17.30;99.90;;;;;;5092588;28;20067;-55
2022/09/08 12:14:07;;;;;;;9.05;7.97;;;17.30;99.90;;;;;;5073678;27;20058;-54
2022/09/08 12:16:54;;;;;;;11.70;10.48;;;17.40;99.90;;;;;;5093312;28;20124;-42
2022/09/08 12:19:45;;;;;;;13.88;10.60;;;17.50;99.90;;;;;;5089508;27;20078;-42
2022/09/08 12:22:20;;;;;;;10.93;9.83;;;17.60;99.90;;;;;;5056925;28;20063;-37
2022/09/08 12:24:52;;;;;;;12.23;10.32;;;17.60;99.90;;;;;;5090686;28;20047;-53
2022/09/08 12:27:45;;;;;;;11.25;10.15;;;17.70;99.90;;;;;;5090835;28;20056;-53
2022/09/08 12:30:25;;;;;;;15.80;11.70;;;17.80;99.90;;;;;;5091121;28;20482;-54
2022/09/08 12:33:10;;;;;;;13.45;12.05;;;18.00;99.90;;;;;;5089403;27;20126;-54
2022/09/08 12:35:45;;;;;;;12.77;11.55;;;18.10;99.90;;;;;;5090040;27;20504;-54
2022/09/08 12:38:14;;;;;;;14.15;12.70;;;18.10;99.90;;;;;;5084987;28;20592;-55
2022/09/08 12:41:21;;;;;;;17.38;15.57;;;18.20;99.90;;;;;;5085947;27;20094;-58
2022/09/08 12:43:47;;;;;;;13.85;12.52;;;18.30;99.90;;;;;;5082770;28;20047;-47
2022/09/08 12:46:34;;;;;;;17.17;15.05;;;18.40;99.90;;;;;;5086357;27;20174;-43
2022/09/08 12:49:19;;;;;;;16.45;14.88;;;18.50;99.90;;;;;;5085405;28;20141;-46
2022/09/08 12:51:48;;;;;;;15.43;14.02;;;18.50;99.90;;;;;;5089373;28;22557;-45
2022/09/08 12:54:22;;;;;;;15.02;13.63;;;18.60;99.90;;;;;;5086071;28;20505;-43
2022/09/08 12:57:18;;;;;;;15.93;14.40;;;18.60;99.90;;;;;;5082705;28;20138;-47
2022/09/08 13:00:09;;;;;;;17.52;15.73;;;18.60;99.90;;;;;;5088578;28;20608;-42
2022/09/08 13:02:49;;;;;;;16.88;15.23;;;18.70;99.90;;;;;;5086914;27;20150;-46
2022/09/08 13:05:27;;;;;;;17.15;15.50;;;18.80;99.90;;;;;;5085141;28;20062;-46
2022/09/08 13:07:56;;;;;;;17.48;15.73;;;18.80;99.90;;;;;;5086678;27;20054;-57
2022/09/08 13:10:36;;;;;;;17.40;15.68;;;18.80;99.90;;;;;;5086459;28;20691;-56
2022/09/08 13:13:48;;;;;;;17.50;15.90;;;18.80;99.90;;;;;;5087868;28;20403;-56
2022/09/08 13:16:20;;;;;;;14.65;13.20;;;18.80;99.90;;;;;;5081250;28;20047;-56
2022/09/08 13:19:15;;;;;;;15.75;14.35;;;18.80;99.90;;;;;;5084872;28;20494;-54